Time;durP1;ratioP1;P1;durP2;ratioP2;P2;SDS_P1;SDS_P2;PMS_P1;PMS_P2;Temp;Humidity;BMP_temperature;BMP_pressure;BME280_temperature;BME280_humidity;BME280_pressure;Samples;Min_cycle;Max_cycle;Signal;HPM_P1;HPM_P2
2022/05/24 00:00:08;;;;;;;6.13;5.67;;;17.60;99.90;;;;;;5039351;28;20258;-79
2022/05/24 00:02:39;;;;;;;5.80;5.40;;;17.60;99.90;;;;;;5022331;28;20257;-79
2022/05/24 00:05:08;;;;;;;3.43;3.13;;;17.50;99.90;;;;;;5028601;28;20225;-79
2022/05/24 00:07:35;;;;;;;4.77;4.47;;;17.60;99.90;;;;;;5021973;28;20610;-79
2022/05/24 00:10:02;;;;;;;2.23;2.10;;;17.60;99.90;;;;;;5024345;28;20197;-78
2022/05/24 00:12:30;;;;;;;1.80;1.70;;;17.60;99.90;;;;;;5038942;28;20270;-79
2022/05/24 00:17:38;;;;;;;2.33;2.10;;;17.50;99.90;;;;;;5011924;28;20235;-79
2022/05/24 00:20:06;;;;;;;3.23;2.30;;;17.50;99.90;;;;;;5026366;28;20199;-79
2022/05/24 00:22:33;;;;;;;2.57;2.10;;;17.50;99.90;;;;;;5019438;28;20274;-80
2022/05/24 00:25:01;;;;;;;3.07;2.10;;;17.50;99.90;;;;;;5026408;28;20215;-79
2022/05/24 00:27:29;;;;;;;2.53;2.30;;;17.50;99.90;;;;;;5036944;28;20811;-79
2022/05/24 00:29:57;;;;;;;3.30;2.57;;;17.50;99.90;;;;;;5036713;28;20531;-79
2022/05/24 00:32:24;;;;;;;2.60;2.40;;;17.40;99.90;;;;;;5020677;28;20306;-78
2022/05/24 00:34:51;;;;;;;4.37;2.73;;;17.40;99.90;;;;;;5019229;28;20196;-79
2022/05/24 00:37:20;;;;;;;4.60;4.30;;;17.40;99.90;;;;;;5025752;28;20223;-79
2022/05/24 00:39:47;;;;;;;5.93;5.60;;;17.40;99.90;;;;;;5019251;28;20682;-79
2022/05/24 00:42:18;;;;;;;4.50;4.20;;;17.40;99.90;;;;;;5027130;28;20258;-79
2022/05/24 00:44:52;;;;;;;3.10;2.80;;;17.40;99.90;;;;;;5019221;28;20204;-79
2022/05/24 00:47:27;;;;;;;2.30;1.90;;;17.40;99.90;;;;;;5028591;28;20195;-79
2022/05/24 00:49:57;;;;;;;2.30;2.20;;;17.40;99.90;;;;;;5020434;28;20188;-79
2022/05/24 00:52:28;;;;;;;2.50;2.40;;;17.40;99.90;;;;;;5021718;28;20711;-78
2022/05/24 00:54:55;;;;;;;3.10;2.90;;;17.40;99.90;;;;;;5023692;28;20196;-79
2022/05/24 00:57:29;;;;;;;3.20;2.90;;;17.40;99.90;;;;;;5036917;28;20211;-78
2022/05/24 01:00:04;;;;;;;2.77;2.63;;;17.40;99.90;;;;;;5022528;28;20725;-79
2022/05/24 01:02:30;;;;;;;6.13;5.73;;;17.30;99.90;;;;;;5020371;28;20211;-78
2022/05/24 01:04:58;;;;;;;5.20;4.90;;;17.40;99.90;;;;;;5023429;28;20214;-79
2022/05/24 01:07:25;;;;;;;5.67;5.27;;;17.30;99.90;;;;;;5041273;28;20795;-79
2022/05/24 01:09:55;;;;;;;5.03;4.63;;;17.30;99.90;;;;;;5041752;28;20203;-79
2022/05/24 01:12:27;;;;;;;5.90;5.50;;;17.30;99.90;;;;;;5032281;28;20224;-77
2022/05/24 01:14:59;;;;;;;4.30;4.10;;;17.30;99.90;;;;;;5042617;28;20194;-79
2022/05/24 01:17:26;;;;;;;3.20;3.00;;;17.20;99.90;;;;;;5038446;28;20224;-79
2022/05/24 01:19:53;;;;;;;5.03;4.73;;;17.30;99.90;;;;;;5041523;28;20195;-79
2022/05/24 01:23:03;;;;;;;7.43;6.93;;;17.30;99.90;;;;;;5023330;28;20722;-79
2022/05/24 01:25:37;;;;;;;6.30;5.90;;;17.20;99.90;;;;;;5024402;28;20233;-79
2022/05/24 01:28:16;;;;;;;6.60;6.20;;;17.20;99.90;;;;;;5018090;28;20201;-79
2022/05/24 01:30:43;;;;;;;6.60;6.20;;;17.20;99.90;;;;;;5020579;28;20200;-79
2022/05/24 01:36:13;;;;;;;6.40;6.00;;;17.20;99.90;;;;;;5023120;28;20668;-79
2022/05/24 01:38:45;;;;;;;6.23;5.90;;;17.10;99.90;;;;;;5010919;28;20253;-80
2022/05/24 01:41:16;;;;;;;6.70;6.20;;;17.10;99.90;;;;;;5017411;28;20204;-79
2022/05/24 01:43:47;;;;;;;6.57;6.07;;;17.10;99.90;;;;;;5025407;28;20225;-79
2022/05/24 01:46:16;;;;;;;6.80;6.30;;;17.10;99.90;;;;;;5022780;28;20195;-80
2022/05/24 01:48:48;;;;;;;2.77;2.57;;;17.10;99.90;;;;;;5040612;28;20206;-79
2022/05/24 01:51:19;;;;;;;2.50;2.30;;;17.10;99.90;;;;;;5022264;28;20226;-79
2022/05/24 01:53:48;;;;;;;3.67;2.30;;;17.10;99.90;;;;;;5020507;28;20223;-78
2022/05/24 01:56:18;;;;;;;2.63;2.40;;;17.00;99.90;;;;;;5021209;28;20260;-79
2022/05/24 01:58:50;;;;;;;2.70;2.37;;;17.00;99.90;;;;;;5020285;28;20421;-79
2022/05/24 02:01:27;;;;;;;2.47;2.27;;;16.90;99.90;;;;;;5017930;28;20246;-79
2022/05/24 02:03:54;;;;;;;2.90;2.70;;;16.90;99.90;;;;;;5025042;28;20219;-79
2022/05/24 02:06:24;;;;;;;4.90;2.63;;;16.90;99.90;;;;;;5021266;28;20203;-79
2022/05/24 02:08:52;;;;;;;2.53;2.27;;;16.80;99.90;;;;;;5023675;28;20203;-79
2022/05/24 02:11:24;;;;;;;2.47;2.27;;;16.80;99.90;;;;;;5023788;28;20241;-79
2022/05/24 02:13:55;;;;;;;2.30;2.20;;;16.80;99.90;;;;;;5020123;28;20705;-79
2022/05/24 02:16:26;;;;;;;2.20;2.10;;;16.70;99.90;;;;;;5038061;28;20207;-79
2022/05/24 02:18:54;;;;;;;2.10;2.00;;;16.70;99.90;;;;;;5017541;28;20294;-79
2022/05/24 02:21:23;;;;;;;2.00;1.90;;;16.70;99.90;;;;;;5039166;28;20199;-79
2022/05/24 02:23:52;;;;;;;2.67;2.10;;;16.60;99.90;;;;;;5021242;28;20218;-79
2022/05/24 02:26:22;;;;;;;2.30;2.10;;;16.60;99.90;;;;;;5021938;28;20226;-78
2022/05/24 02:28:53;;;;;;;2.00;1.90;;;16.50;99.90;;;;;;5018761;28;20599;-79
2022/05/24 02:31:24;;;;;;;2.10;2.00;;;16.50;99.90;;;;;;5039578;28;20232;-79
2022/05/24 02:33:50;;;;;;;2.37;2.17;;;16.40;99.90;;;;;;5020477;28;20222;-80
2022/05/24 02:36:18;;;;;;;2.47;2.30;;;16.40;99.90;;;;;;5033510;28;20744;-79
2022/05/24 02:38:47;;;;;;;2.17;2.07;;;16.30;99.90;;;;;;5038802;28;20200;-80
2022/05/24 02:41:28;;;;;;;3.13;2.40;;;16.20;99.90;;;;;;5021261;28;20204;-79
2022/05/24 02:43:59;;;;;;;2.80;2.10;;;16.20;99.90;;;;;;5032200;28;20215;-79
2022/05/24 02:46:27;;;;;;;2.23;2.00;;;16.10;99.90;;;;;;5022553;28;20313;-80
2022/05/24 02:48:54;;;;;;;4.90;2.37;;;16.10;99.90;;;;;;5019745;28;20199;-77
2022/05/24 02:51:21;;;;;;;2.07;1.97;;;16.00;99.90;;;;;;5017400;28;20677;-79
2022/05/24 02:53:49;;;;;;;2.60;2.40;;;16.00;99.90;;;;;;5040880;28;20287;-78
2022/05/24 02:56:16;;;;;;;2.40;2.20;;;16.00;99.90;;;;;;5034238;28;20211;-78
2022/05/24 02:58:44;;;;;;;2.30;2.10;;;16.00;99.90;;;;;;5006654;28;20216;-81
2022/05/24 03:01:15;;;;;;;2.60;2.40;;;16.00;99.90;;;;;;5031529;28;20209;-81
2022/05/24 03:03:42;;;;;;;3.50;2.57;;;16.00;99.90;;;;;;5026685;28;20221;-79
2022/05/24 03:06:09;;;;;;;2.40;2.20;;;15.90;99.90;;;;;;5022454;28;20219;-80
2022/05/24 03:11:21;;;;;;;3.37;2.23;;;15.90;99.90;;;;;;5017303;28;20204;-80
2022/05/24 03:16:33;;;;;;;3.57;2.50;;;15.90;99.90;;;;;;5019081;28;20695;-79
2022/05/24 03:19:01;;;;;;;2.13;2.03;;;15.90;99.90;;;;;;5015456;28;20298;-79
2022/05/24 03:21:28;;;;;;;2.20;2.00;;;15.90;99.90;;;;;;5017480;28;20206;-78
2022/05/24 03:23:55;;;;;;;2.10;2.00;;;16.00;99.90;;;;;;5015979;28;20603;-79
2022/05/24 03:26:22;;;;;;;2.40;2.00;;;16.00;99.90;;;;;;5017154;28;20220;-79
2022/05/24 03:28:55;;;;;;;4.23;2.00;;;16.00;99.90;;;;;;5029194;28;20636;-79
2022/05/24 03:31:22;;;;;;;2.40;2.10;;;16.10;99.90;;;;;;5017035;28;20204;-79
2022/05/24 03:33:51;;;;;;;1.97;1.87;;;16.10;99.90;;;;;;5011868;28;20623;-78
2022/05/24 03:36:20;;;;;;;2.40;2.00;;;16.10;99.90;;;;;;5032411;28;20191;-79
2022/05/24 03:38:47;;;;;;;2.50;1.90;;;16.10;99.90;;;;;;5030617;28;20209;-79
2022/05/24 03:41:14;;;;;;;2.30;2.10;;;16.10;99.90;;;;;;5031052;28;20760;-79
2022/05/24 03:43:41;;;;;;;2.20;2.10;;;16.10;99.90;;;;;;5012569;28;20322;-79
2022/05/24 03:46:10;;;;;;;1.80;1.70;;;16.20;99.90;;;;;;5016548;28;20302;-80
2022/05/24 03:48:38;;;;;;;1.97;1.87;;;16.20;99.90;;;;;;5029872;28;20281;-78
2022/05/24 03:51:07;;;;;;;1.90;1.80;;;16.20;99.90;;;;;;5015051;28;20231;-78
2022/05/24 03:53:34;;;;;;;2.00;1.90;;;16.20;99.90;;;;;;5017222;28;20313;-79
2022/05/24 03:56:02;;;;;;;1.87;1.77;;;16.30;99.90;;;;;;5017770;28;20193;-79
2022/05/24 03:58:29;;;;;;;2.07;1.90;;;16.30;99.90;;;;;;5022361;28;20201;-78
2022/05/24 04:00:57;;;;;;;2.37;2.17;;;16.20;99.90;;;;;;5022333;28;20655;-81
2022/05/24 04:03:24;;;;;;;2.10;2.00;;;16.20;99.90;;;;;;5023653;28;20281;-82
2022/05/24 04:05:52;;;;;;;2.53;1.90;;;16.30;99.90;;;;;;5020301;28;20244;-81
2022/05/24 04:08:24;;;;;;;1.90;1.80;;;16.30;99.90;;;;;;5031121;28;20212;-82
2022/05/24 04:10:51;;;;;;;1.73;1.63;;;16.20;99.90;;;;;;5022889;28;20742;-80
2022/05/24 04:13:18;;;;;;;2.20;2.00;;;16.30;99.90;;;;;;5027055;28;20371;-77
2022/05/24 04:15:45;;;;;;;2.20;2.00;;;16.30;99.90;;;;;;5019424;28;20218;-79
2022/05/24 04:18:11;;;;;;;2.10;2.00;;;16.30;99.90;;;;;;5021096;28;20188;-80
2022/05/24 04:20:38;;;;;;;1.93;1.83;;;16.30;99.90;;;;;;5019335;28;20265;-78
2022/05/24 04:23:05;;;;;;;2.40;2.20;;;16.30;99.90;;;;;;5018823;28;20666;-78
2022/05/24 04:25:36;;;;;;;2.10;2.00;;;16.30;99.90;;;;;;5010326;28;20276;-80
2022/05/24 04:28:04;;;;;;;3.33;2.03;;;16.30;99.90;;;;;;5016705;28;20200;-78
2022/05/24 04:30:31;;;;;;;2.20;2.00;;;16.30;99.90;;;;;;5033901;28;20835;-78
2022/05/24 04:32:59;;;;;;;2.20;2.00;;;16.40;99.90;;;;;;5020163;28;20234;-78
2022/05/24 04:35:26;;;;;;;2.37;2.17;;;16.40;99.90;;;;;;5031241;28;20227;-78
2022/05/24 04:37:53;;;;;;;2.47;2.10;;;16.40;99.90;;;;;;5035858;28;20201;-78
2022/05/24 04:42:18;;;;;;;3.77;2.00;;;16.40;99.90;;;;;;5019192;28;20207;-78
2022/05/24 04:43:07;;;;;;;3.57;2.00;;;16.40;99.90;;;;;;5031195;28;20217;-79
2022/05/24 04:45:34;;;;;;;2.33;2.13;;;16.40;99.90;;;;;;5021189;28;20219;-78
2022/05/24 04:48:01;;;;;;;2.57;2.27;;;16.40;99.90;;;;;;5019404;28;20236;-78
2022/05/24 04:50:28;;;;;;;2.67;2.40;;;16.40;99.90;;;;;;5030500;28;20668;-78
2022/05/24 04:52:55;;;;;;;2.50;2.30;;;16.50;99.90;;;;;;5016466;28;20238;-78
2022/05/24 04:55:25;;;;;;;4.77;2.60;;;16.50;99.90;;;;;;5020350;28;20289;-78
2022/05/24 04:57:52;;;;;;;5.10;2.60;;;16.50;99.90;;;;;;5036801;28;20299;-79
2022/05/24 05:00:21;;;;;;;4.90;2.73;;;16.50;99.90;;;;;;5020040;28;20643;-78
2022/05/24 05:02:49;;;;;;;3.00;2.40;;;16.50;99.90;;;;;;5035638;28;20697;-78
2022/05/24 05:05:16;;;;;;;3.77;2.67;;;16.60;99.90;;;;;;5019257;28;20251;-78
2022/05/24 05:07:43;;;;;;;4.50;2.67;;;16.60;99.90;;;;;;5036617;28;20269;-79
2022/05/24 05:10:12;;;;;;;3.43;2.50;;;16.60;99.90;;;;;;5020048;28;20294;-78
2022/05/24 05:12:39;;;;;;;2.40;2.20;;;16.60;99.90;;;;;;5023279;28;20227;-78
2022/05/24 05:15:08;;;;;;;2.77;2.50;;;16.60;99.90;;;;;;5038649;28;20202;-78
2022/05/24 05:17:37;;;;;;;2.77;2.40;;;16.70;99.90;;;;;;5035042;28;20195;-78
2022/05/24 05:20:05;;;;;;;3.80;2.40;;;16.70;99.90;;;;;;5031937;28;20203;-79
2022/05/24 05:22:32;;;;;;;3.07;2.30;;;16.70;99.90;;;;;;5037946;28;20224;-78
2022/05/24 05:24:59;;;;;;;3.27;2.50;;;16.80;99.90;;;;;;5035583;28;20661;-78
2022/05/24 05:27:26;;;;;;;2.43;2.23;;;16.90;99.90;;;;;;5021104;28;20203;-78
2022/05/24 05:32:35;;;;;;;2.30;2.20;;;17.10;99.90;;;;;;4988911;28;20249;-78
2022/05/24 05:35:03;;;;;;;2.63;2.37;;;17.10;99.90;;;;;;5029403;28;20287;-78
2022/05/24 05:37:33;;;;;;;2.93;2.63;;;17.20;99.90;;;;;;5035304;28;20676;-79
2022/05/24 05:40:03;;;;;;;2.10;2.00;;;17.20;99.90;;;;;;5018304;28;20207;-79
2022/05/24 05:42:30;;;;;;;2.13;1.97;;;17.20;99.90;;;;;;5020978;28;20247;-79
2022/05/24 05:44:57;;;;;;;2.23;2.00;;;17.20;99.90;;;;;;5037145;28;20219;-79
2022/05/24 05:47:24;;;;;;;1.97;1.87;;;17.20;99.90;;;;;;5022284;28;20275;-78
2022/05/24 05:49:51;;;;;;;2.07;1.97;;;17.40;99.90;;;;;;5019029;28;20207;-79
2022/05/24 05:52:20;;;;;;;2.20;2.10;;;17.50;99.90;;;;;;5031816;28;20589;-78
2022/05/24 05:54:46;;;;;;;2.53;2.10;;;17.60;99.90;;;;;;5023897;28;20244;-79
2022/05/24 05:57:13;;;;;;;2.10;2.00;;;17.70;99.90;;;;;;5022154;28;20210;-78
2022/05/24 05:59:40;;;;;;;2.17;2.00;;;17.70;99.90;;;;;;5022634;28;20196;-79
2022/05/24 06:02:08;;;;;;;2.10;2.00;;;17.80;99.90;;;;;;5021062;28;20196;-79
2022/05/24 06:04:35;;;;;;;2.40;2.20;;;17.80;99.90;;;;;;5038522;28;20259;-78
2022/05/24 06:07:02;;;;;;;2.00;1.90;;;17.80;99.90;;;;;;5024588;28;20223;-79
2022/05/24 06:09:31;;;;;;;2.00;1.90;;;17.90;99.90;;;;;;5036453;28;20284;-78
2022/05/24 06:12:00;;;;;;;1.90;1.80;;;17.90;99.90;;;;;;5034597;28;20292;-79
2022/05/24 06:14:28;;;;;;;2.53;2.00;;;18.00;99.90;;;;;;5040307;28;20676;-79
2022/05/24 06:16:55;;;;;;;3.40;2.10;;;18.10;99.90;;;;;;5016956;28;20188;-79
2022/05/24 06:19:22;;;;;;;2.90;2.07;;;18.10;99.90;;;;;;5025010;28;20581;-78
2022/05/24 06:21:49;;;;;;;2.33;2.13;;;18.20;99.90;;;;;;5018806;28;20200;-78
2022/05/24 06:24:16;;;;;;;1.93;1.83;;;18.20;99.90;;;;;;5031068;28;20554;-79
2022/05/24 06:26:44;;;;;;;2.17;2.07;;;18.40;99.90;;;;;;5041292;28;20219;-80
2022/05/24 06:29:11;;;;;;;2.33;1.83;;;18.40;99.90;;;;;;5033617;28;20198;-79
2022/05/24 06:31:38;;;;;;;2.10;2.00;;;18.50;99.90;;;;;;5029645;28;20288;-78
2022/05/24 06:34:05;;;;;;;2.17;1.97;;;18.60;99.90;;;;;;5021139;28;20713;-79
2022/05/24 06:36:32;;;;;;;2.23;2.03;;;18.80;99.90;;;;;;5024198;28;20289;-79
2022/05/24 06:38:59;;;;;;;3.40;2.47;;;18.90;99.90;;;;;;5016622;28;20206;-80
2022/05/24 06:41:27;;;;;;;2.60;2.40;;;18.90;99.90;;;;;;5027968;28;20241;-79
2022/05/24 06:43:55;;;;;;;5.47;5.07;;;18.90;99.90;;;;;;5026448;28;20223;-78
2022/05/24 06:46:23;;;;;;;5.40;5.00;;;18.90;99.90;;;;;;5021374;28;20215;-80
2022/05/24 06:48:50;;;;;;;5.97;5.20;;;19.00;99.90;;;;;;5012417;28;20287;-79
2022/05/24 06:51:20;;;;;;;5.10;4.80;;;19.10;99.90;;;;;;5020757;28;20225;-78
2022/05/24 06:53:48;;;;;;;5.30;5.00;;;19.30;99.90;;;;;;5020951;28;20248;-80
2022/05/24 06:56:16;;;;;;;5.40;5.00;;;19.50;99.90;;;;;;5025107;28;20304;-81
2022/05/24 06:58:43;;;;;;;5.27;4.87;;;19.70;99.90;;;;;;5012790;28;20202;-80
2022/05/24 07:03:59;;;;;;;5.40;5.00;;;19.80;99.90;;;;;;5037414;28;20318;-81
2022/05/24 07:06:26;;;;;;;5.77;5.37;;;19.80;99.90;;;;;;5038636;28;20227;-81
2022/05/24 07:08:53;;;;;;;6.50;5.50;;;19.80;99.90;;;;;;5032046;28;20199;-81
2022/05/24 07:11:22;;;;;;;3.17;2.40;;;19.70;99.90;;;;;;5038778;28;20203;-79
2022/05/24 07:13:49;;;;;;;3.07;2.87;;;19.60;99.90;;;;;;5020388;28;20273;-80
2022/05/24 07:16:17;;;;;;;4.00;3.60;;;19.60;99.90;;;;;;5026563;28;20204;-80
2022/05/24 07:18:44;;;;;;;4.83;4.43;;;19.40;99.90;;;;;;5020068;28;20210;-81
2022/05/24 07:21:11;;;;;;;6.43;5.83;;;19.30;99.90;;;;;;5026991;28;20297;-80
2022/05/24 07:23:38;;;;;;;4.40;4.10;;;19.10;99.90;;;;;;5011520;28;20297;-80
2022/05/24 07:26:12;;;;;;;5.53;5.23;;;18.90;99.90;;;;;;5012084;28;20242;-79
2022/05/24 07:28:39;;;;;;;3.60;3.40;;;18.70;99.90;;;;;;5016985;28;20210;-77
2022/05/24 07:31:06;;;;;;;5.27;4.87;;;18.50;99.90;;;;;;5042520;28;20203;-78
2022/05/24 07:33:34;;;;;;;2.23;2.07;;;18.30;99.90;;;;;;5046175;28;20225;-79
2022/05/24 07:36:01;;;;;;;2.63;2.53;;;17.90;99.90;;;;;;5021609;28;20587;-79
2022/05/24 07:38:28;;;;;;;5.60;5.20;;;17.70;99.90;;;;;;5027624;28;20200;-78
2022/05/24 07:46:31;;;;;;;5.23;3.80;;;17.10;99.90;;;;;;5023568;28;20285;-81
2022/05/24 07:48:59;;;;;;;2.40;2.30;;;17.00;99.90;;;;;;5041474;28;20215;-81
2022/05/24 07:51:27;;;;;;;1.90;1.80;;;17.10;99.90;;;;;;5017332;28;20355;-81
2022/05/24 07:53:54;;;;;;;3.60;1.83;;;17.10;99.90;;;;;;5024430;28;20252;-81
2022/05/24 07:56:21;;;;;;;1.70;1.60;;;17.10;99.90;;;;;;5007755;28;20215;-81
2022/05/24 07:58:48;;;;;;;1.50;1.50;;;17.10;99.90;;;;;;5038475;28;20207;-81
2022/05/24 08:01:15;;;;;;;3.07;1.73;;;17.00;99.90;;;;;;5043430;28;20680;-81
2022/05/24 08:03:42;;;;;;;1.57;1.40;;;17.00;99.90;;;;;;5024662;28;20277;-81
2022/05/24 08:06:11;;;;;;;1.67;1.57;;;17.00;99.90;;;;;;5008856;28;20633;-80
2022/05/24 08:08:38;;;;;;;1.60;1.50;;;17.00;99.90;;;;;;5027553;28;20283;-82
2022/05/24 08:11:06;;;;;;;1.77;1.67;;;17.20;99.90;;;;;;5018918;28;20211;-81
2022/05/24 08:13:34;;;;;;;1.40;1.40;;;17.40;99.90;;;;;;5015330;28;20719;-81
2022/05/24 08:16:00;;;;;;;1.43;1.43;;;17.50;99.90;;;;;;5021323;28;20232;-82
2022/05/24 08:18:28;;;;;;;1.40;1.40;;;18.00;99.90;;;;;;5039512;28;20209;-82
2022/05/24 08:20:56;;;;;;;1.70;1.60;;;18.60;99.90;;;;;;5040221;28;20208;-82
2022/05/24 08:23:27;;;;;;;2.17;1.97;;;19.20;99.90;;;;;;5030410;28;20273;-81
2022/05/24 08:25:55;;;;;;;2.87;2.70;;;19.60;99.90;;;;;;5039372;28;20205;-81
2022/05/24 08:28:22;;;;;;;4.80;4.50;;;19.70;99.90;;;;;;5032962;28;20202;-84
2022/05/24 08:30:50;;;;;;;4.30;4.00;;;19.50;99.90;;;;;;5010117;28;20206;-79
2022/05/24 08:33:18;;;;;;;1.57;1.50;;;19.40;99.90;;;;;;5019377;28;20322;-81
2022/05/24 08:35:45;;;;;;;3.60;3.40;;;19.60;99.90;;;;;;5030343;28;20861;-84
2022/05/24 08:38:13;;;;;;;1.50;1.50;;;19.80;99.90;;;;;;5012102;28;20203;-79
2022/05/24 08:40:46;;;;;;;5.17;4.77;;;20.10;99.90;;;;;;5020693;28;20207;-80
2022/05/24 08:43:31;;;;;;;4.60;4.30;;;20.40;99.90;;;;;;5032451;28;20232;-79
2022/05/24 08:48:51;;;;;;;2.97;2.77;;;20.30;99.90;;;;;;5029241;28;20200;-79
2022/05/24 08:51:22;;;;;;;2.83;2.73;;;20.00;99.90;;;;;;5038073;28;20204;-79
2022/05/24 08:53:51;;;;;;;2.60;2.47;;;19.90;99.90;;;;;;5018982;28;20219;-79
2022/05/24 08:56:25;;;;;;;3.00;2.80;;;19.70;99.90;;;;;;5026002;28;20195;-79
2022/05/24 08:58:57;;;;;;;5.13;1.60;;;19.60;99.90;;;;;;5018621;28;20203;-79
2022/05/24 09:01:27;;;;;;;3.13;2.33;;;19.50;99.90;;;;;;5026815;28;20254;-79
2022/05/24 09:03:55;;;;;;;2.37;2.27;;;19.50;99.90;;;;;;5018962;28;20729;-79
2022/05/24 09:06:35;;;;;;;1.40;1.40;;;19.30;99.90;;;;;;5020260;28;20306;-79
2022/05/24 09:09:19;;;;;;;1.40;1.40;;;19.40;99.90;;;;;;5038317;28;20207;-79
2022/05/24 09:12:04;;;;;;;1.40;1.30;;;19.50;99.90;;;;;;5026676;28;20237;-79
2022/05/24 09:14:40;;;;;;;1.40;1.40;;;19.50;99.90;;;;;;5021303;28;20207;-79
2022/05/24 09:17:21;;;;;;;2.70;1.47;;;19.80;99.90;;;;;;5038844;28;20205;-79
2022/05/24 09:19:48;;;;;;;1.53;1.40;;;20.00;99.90;;;;;;5039131;28;20199;-79
2022/05/24 09:22:16;;;;;;;1.77;1.63;;;20.20;99.90;;;;;;5038001;28;20310;-79
2022/05/24 09:24:46;;;;;;;2.27;2.17;;;20.20;99.90;;;;;;5014109;28;20225;-79
2022/05/24 09:27:18;;;;;;;4.00;3.80;;;20.10;99.90;;;;;;5039166;28;20224;-79
2022/05/24 09:30:02;;;;;;;3.77;3.57;;;19.80;99.90;;;;;;5023027;28;20239;-78
2022/05/24 09:32:37;;;;;;;2.00;1.90;;;19.50;99.90;;;;;;5026153;28;20227;-79
2022/05/24 09:35:19;;;;;;;2.30;1.97;;;19.70;99.90;;;;;;5024089;28;20199;-79
2022/05/24 09:37:55;;;;;;;2.20;2.00;;;20.00;99.90;;;;;;5015735;28;20196;-79
2022/05/24 09:40:24;;;;;;;2.73;1.60;;;20.60;99.90;;;;;;5032529;28;20470;-79
2022/05/24 09:42:53;;;;;;;3.77;3.50;;;21.00;99.90;;;;;;5050372;28;20700;-79
2022/05/24 09:45:23;;;;;;;4.03;3.30;;;21.20;99.90;;;;;;5026259;28;20741;-79
2022/05/24 09:47:58;;;;;;;2.63;2.53;;;21.40;99.90;;;;;;5042388;28;20230;-79
2022/05/24 09:50:29;;;;;;;2.23;2.03;;;22.10;99.90;;;;;;5033139;28;20211;-79
2022/05/24 09:53:10;;;;;;;3.90;3.70;;;22.20;99.90;;;;;;5022218;28;20224;-79
2022/05/24 09:55:45;;;;;;;4.80;4.50;;;22.00;99.90;;;;;;5014128;28;20223;-79
2022/05/24 09:58:27;;;;;;;2.33;2.23;;;21.90;99.90;;;;;;5022104;28;20673;-79
2022/05/24 10:00:58;;;;;;;2.53;1.50;;;22.00;99.90;;;;;;5042083;28;20192;-79
2022/05/24 10:03:29;;;;;;;3.80;3.60;;;21.90;99.90;;;;;;5033582;28;20311;-79
2022/05/24 10:06:11;;;;;;;2.97;2.87;;;22.30;99.90;;;;;;5049851;28;20206;-80
2022/05/24 10:08:52;;;;;;;6.13;5.63;;;23.20;99.90;;;;;;5049869;28;20230;-80
2022/05/24 10:11:28;;;;;;;5.23;4.93;;;23.20;99.90;;;;;;5025285;28;20268;-79
2022/05/24 10:14:26;;;;;;;5.67;5.17;;;22.90;99.90;;;;;;5020265;28;20242;-78
2022/05/24 10:17:03;;;;;;;5.67;5.30;;;22.30;99.90;;;;;;5015531;28;20192;-80
2022/05/24 10:19:54;;;;;;;2.30;2.10;;;22.00;99.90;;;;;;5033486;28;20199;-79
2022/05/24 10:22:32;;;;;;;5.63;5.23;;;21.80;99.90;;;;;;5033550;28;20225;-79
2022/05/24 10:25:10;;;;;;;5.73;5.43;;;21.20;99.90;;;;;;5033753;28;20201;-79
2022/05/24 10:27:46;;;;;;;5.87;5.47;;;21.00;99.90;;;;;;5030081;28;20205;-79
2022/05/24 10:30:20;;;;;;;5.90;5.40;;;21.20;99.90;;;;;;5021749;28;20403;-79
2022/05/24 10:38:52;;;;;;;5.67;5.27;;;22.20;99.90;;;;;;5021136;28;20193;-80
2022/05/24 10:41:25;;;;;;;4.57;4.37;;;22.70;99.90;;;;;;5036352;28;20594;-79
2022/05/24 10:44:01;;;;;;;5.90;5.50;;;23.20;99.90;;;;;;5039731;28;20244;-79
2022/05/24 10:46:38;;;;;;;5.23;4.93;;;23.20;99.90;;;;;;5024103;28;20290;-79
2022/05/24 10:49:10;;;;;;;5.40;4.90;;;23.10;99.90;;;;;;5021886;28;20279;-79
2022/05/24 10:51:47;;;;;;;5.20;4.90;;;22.70;99.90;;;;;;5026058;28;20204;-79
2022/05/24 10:54:24;;;;;;;4.80;4.40;;;22.70;99.90;;;;;;5030549;28;20229;-79
2022/05/24 10:56:55;;;;;;;5.20;4.93;;;22.90;99.90;;;;;;5034550;28;20229;-81
2022/05/24 10:59:29;;;;;;;4.70;4.47;;;22.90;99.90;;;;;;5013188;28;20214;-80
2022/05/24 11:02:03;;;;;;;3.10;3.00;;;23.00;99.90;;;;;;5021056;28;20208;-78
2022/05/24 11:04:40;;;;;;;4.10;3.80;;;23.10;99.90;;;;;;5020918;28;20664;-78
2022/05/24 11:07:13;;;;;;;4.50;4.30;;;22.80;99.90;;;;;;5033616;28;20224;-77
2022/05/24 11:09:47;;;;;;;5.20;4.80;;;22.60;99.90;;;;;;5017828;28;20724;-78
2022/05/24 11:12:20;;;;;;;4.07;3.87;;;22.30;99.90;;;;;;5022764;28;20261;-78
2022/05/24 11:14:51;;;;;;;4.17;3.77;;;22.20;99.90;;;;;;5020189;28;20207;-80
2022/05/24 11:17:20;;;;;;;2.27;1.30;;;22.20;99.90;;;;;;5016957;28;20204;-81
2022/05/24 11:19:50;;;;;;;1.40;1.40;;;22.50;99.90;;;;;;5018907;28;20188;-81
2022/05/24 11:22:24;;;;;;;1.20;1.20;;;22.40;99.90;;;;;;5026698;28;20324;-83
2022/05/24 11:24:56;;;;;;;1.47;1.40;;;22.40;99.90;;;;;;5033237;28;20203;-80
2022/05/24 11:27:28;;;;;;;1.40;1.40;;;22.10;99.90;;;;;;5018847;28;20215;-79
2022/05/24 11:30:00;;;;;;;1.70;1.60;;;21.80;99.90;;;;;;5016005;28;20542;-79
2022/05/24 11:32:36;;;;;;;1.27;1.27;;;21.40;99.90;;;;;;5035440;28;20283;-79
2022/05/24 11:35:10;;;;;;;2.80;2.60;;;21.20;99.90;;;;;;5021588;28;20210;-79
2022/05/24 11:37:39;;;;;;;2.50;2.33;;;21.10;99.90;;;;;;5038575;28;20649;-79
2022/05/24 11:40:29;;;;;;;2.90;2.70;;;21.40;99.90;;;;;;5021236;28;20625;-79
2022/05/24 11:42:57;;;;;;;2.80;2.60;;;21.70;99.90;;;;;;5032533;28;20224;-79
2022/05/24 11:45:59;;;;;;;2.73;2.50;;;22.00;99.90;;;;;;5021534;28;20261;-79
2022/05/24 11:48:47;;;;;;;2.20;2.10;;;22.10;99.90;;;;;;5020537;28;20223;-78
2022/05/24 11:51:39;;;;;;;1.70;1.60;;;21.90;99.90;;;;;;5021714;28;20254;-78
2022/05/24 11:54:09;;;;;;;1.70;1.60;;;22.00;99.90;;;;;;5021972;28;20289;-79
2022/05/24 11:56:38;;;;;;;2.70;1.80;;;22.10;99.90;;;;;;5008739;28;20289;-78
2022/05/24 11:59:06;;;;;;;1.40;1.30;;;22.10;99.90;;;;;;5017772;28;20318;-79
2022/05/24 12:01:44;;;;;;;1.40;1.40;;;22.20;99.90;;;;;;5021377;28;20204;-77
2022/05/24 12:11:11;;;;;;;1.50;1.50;;;22.60;99.90;;;;;;5033682;28;20759;-79
2022/05/24 12:14:10;;;;;;;2.83;1.43;;;23.00;99.90;;;;;;5011652;28;20223;-79
2022/05/24 12:16:45;;;;;;;3.23;2.00;;;23.30;99.90;;;;;;5026709;28;20207;-79
2022/05/24 12:19:33;;;;;;;4.70;4.40;;;23.10;99.30;;;;;;5031612;28;20640;-79
2022/05/24 12:22:07;;;;;;;4.43;4.23;;;23.00;99.90;;;;;;5016578;28;20213;-79
2022/05/24 12:24:57;;;;;;;4.23;3.43;;;22.90;99.90;;;;;;5021447;28;20207;-80
2022/05/24 12:27:57;;;;;;;4.13;3.73;;;23.00;99.90;;;;;;5020345;28;20212;-79
2022/05/24 12:30:43;;;;;;;2.43;2.33;;;23.10;98.40;;;;;;5020183;28;20224;-79
2022/05/24 12:33:23;;;;;;;1.93;1.83;;;23.10;97.70;;;;;;5018650;28;20227;-79
2022/05/24 12:35:57;;;;;;;3.50;3.30;;;23.30;97.90;;;;;;5013190;28;20196;-80
2022/05/24 12:38:28;;;;;;;1.60;1.50;;;23.40;99.00;;;;;;5019099;28;20202;-78
2022/05/24 12:41:14;;;;;;;2.03;1.93;;;23.60;97.80;;;;;;5018425;28;20228;-79
2022/05/24 12:43:50;;;;;;;3.93;3.73;;;23.60;97.50;;;;;;5032223;28;20216;-79
2022/05/24 12:46:18;;;;;;;4.70;4.47;;;23.70;98.30;;;;;;5022602;28;20253;-79
2022/05/24 12:48:46;;;;;;;5.10;4.80;;;23.90;97.20;;;;;;5018731;28;20306;-79
2022/05/24 12:51:13;;;;;;;5.30;4.90;;;24.10;96.70;;;;;;5030206;28;20251;-79
2022/05/24 12:53:41;;;;;;;5.40;5.10;;;24.40;97.10;;;;;;5032196;28;20221;-79
2022/05/24 12:56:15;;;;;;;1.97;1.87;;;24.50;95.00;;;;;;5035605;28;20207;-79
2022/05/24 12:58:45;;;;;;;5.70;5.30;;;24.50;95.90;;;;;;5018205;28;20203;-79
2022/05/24 13:01:23;;;;;;;4.20;4.00;;;24.30;95.60;;;;;;5021106;28;20686;-79
2022/05/24 13:04:02;;;;;;;4.40;4.20;;;24.00;97.00;;;;;;5021759;28;20211;-79
2022/05/24 13:06:43;;;;;;;4.53;4.23;;;24.00;96.50;;;;;;5035916;28;20269;-79
2022/05/24 13:09:21;;;;;;;4.83;4.60;;;24.00;96.90;;;;;;5025846;28;20233;-79
2022/05/24 13:11:52;;;;;;;4.73;3.80;;;23.80;95.90;;;;;;5033978;28;20187;-79
2022/05/24 13:14:46;;;;;;;3.93;3.73;;;23.70;96.40;;;;;;5021464;28;20682;-80
2022/05/24 13:17:17;;;;;;;5.03;4.80;;;23.70;98.10;;;;;;5021898;28;20214;-79
2022/05/24 13:19:56;;;;;;;2.17;1.40;;;23.60;96.60;;;;;;5040450;28;20203;-79
2022/05/24 13:22:26;;;;;;;1.40;1.30;;;23.60;97.20;;;;;;5024329;28;20281;-79
2022/05/24 13:25:00;;;;;;;4.90;4.60;;;23.70;96.80;;;;;;5033765;28;20664;-79
2022/05/24 13:27:49;;;;;;;5.33;5.03;;;23.80;97.80;;;;;;5024513;28;20222;-80
2022/05/24 13:35:49;;;;;;;1.30;1.30;;;23.60;95.40;;;;;;5023976;28;20195;-79
2022/05/24 13:38:24;;;;;;;4.10;2.17;;;23.40;96.40;;;;;;5035055;28;20627;-80
2022/05/24 13:40:54;;;;;;;4.60;4.40;;;23.50;96.30;;;;;;5039912;28;20196;-79
2022/05/24 13:43:37;;;;;;;5.13;4.83;;;23.80;96.60;;;;;;5023533;28;20315;-80
2022/05/24 13:46:15;;;;;;;2.00;1.57;;;24.00;96.20;;;;;;5018144;28;20200;-78
2022/05/24 13:48:44;;;;;;;1.40;1.30;;;24.00;97.30;;;;;;5036745;28;20693;-79
2022/05/24 13:51:25;;;;;;;2.93;2.77;;;24.00;97.00;;;;;;5023654;28;20218;-79